createdAt,value
2022-10-19T00:01:56.855Z,12.27
2022-10-19T00:04:24.307Z,12.28
2022-10-19T00:06:53.254Z,12.12
2022-10-19T00:09:20.603Z,12.08
2022-10-19T00:11:51.240Z,12.03
2022-10-19T00:14:21.248Z,11.99
2022-10-19T00:16:51.359Z,12.06
2022-10-19T00:19:20.842Z,12.02
2022-10-19T00:21:48.593Z,12.00
2022-10-19T00:24:17.962Z,12.04
2022-10-19T00:26:45.296Z,12.02
2022-10-19T00:29:14.407Z,11.99
2022-10-19T00:31:42.191Z,12.00
2022-10-19T00:34:09.531Z,12.04
2022-10-19T00:36:38.805Z,12.05
2022-10-19T00:39:07.770Z,11.99
2022-10-19T00:41:37.724Z,11.99
2022-10-19T00:44:07.910Z,12.08
2022-10-19T00:46:37.274Z,12.07
2022-10-19T00:49:10.019Z,12.07
2022-10-19T00:51:42.555Z,12.08
2022-10-19T00:54:11.376Z,12.01
2022-10-19T00:56:42.685Z,11.94
2022-10-19T00:59:12.029Z,12.01
2022-10-19T01:01:39.337Z,12.02
2022-10-19T01:04:06.597Z,12.06
2022-10-19T01:06:35.379Z,12.10
2022-10-19T01:09:02.683Z,12.10
2022-10-19T01:11:42.297Z,12.05
2022-10-19T01:14:27.660Z,12.11
2022-10-19T01:17:06.623Z,12.16
2022-10-19T01:20:03.866Z,12.16
2022-10-19T01:22:46.512Z,12.16
2022-10-19T01:25:22.997Z,12.13
2022-10-19T01:28:19.485Z,12.14
2022-10-19T01:30:58.747Z,12.17
2022-10-19T01:33:40.391Z,12.07
2022-10-19T01:36:20.991Z,12.07
2022-10-19T01:38:54.533Z,12.03
2022-10-19T01:41:29.943Z,12.05
2022-10-19T01:44:01.368Z,12.06
2022-10-19T01:46:36.447Z,12.05
2022-10-19T01:49:11.156Z,12.05
2022-10-19T01:51:45.539Z,12.00
2022-10-19T01:54:15.835Z,11.98
2022-10-19T01:56:46.387Z,12.02
2022-10-19T01:59:16.233Z,11.99
2022-10-19T02:01:47.588Z,11.99
2022-10-19T02:04:18.824Z,12.01
2022-10-19T02:06:46.239Z,12.07
2022-10-19T02:09:13.544Z,12.13
2022-10-19T02:11:41.827Z,12.12
2022-10-19T02:14:15.266Z,12.09
2022-10-19T02:16:48.900Z,12.01
2022-10-19T02:19:17.819Z,12.00
2022-10-19T02:21:45.513Z,11.99
2022-10-19T02:24:12.728Z,12.00
2022-10-19T02:26:40.870Z,12.03
2022-10-19T02:29:10.107Z,11.97
2022-10-19T02:31:38.168Z,11.97
2022-10-19T02:34:07.372Z,12.04
2022-10-19T02:36:34.860Z,12.01
2022-10-19T02:39:02.389Z,11.96
2022-10-19T02:41:35.051Z,11.94
2022-10-19T02:44:07.525Z,11.99
2022-10-19T02:49:15.261Z,12.02
2022-10-19T02:51:58.136Z,11.99
2022-10-19T02:54:25.567Z,12.01
2022-10-19T02:56:52.780Z,12.00
2022-10-19T02:59:20.111Z,12.01
2022-10-19T03:01:47.376Z,12.03
2022-10-19T03:04:16.184Z,12.02
2022-10-19T03:06:43.619Z,12.04
2022-10-19T03:09:10.913Z,12.09
2022-10-19T03:11:38.815Z,12.10
2022-10-19T03:14:06.162Z,12.04
2022-10-19T03:16:33.387Z,12.04
2022-10-19T03:19:00.633Z,12.05
2022-10-19T03:21:29.691Z,12.03
2022-10-19T03:23:56.936Z,12.09
2022-10-19T03:26:24.195Z,12.07
2022-10-19T03:28:51.445Z,12.08
2022-10-19T03:31:19.384Z,12.01
2022-10-19T03:33:46.865Z,12.02
2022-10-19T03:36:21.135Z,12.03
2022-10-19T03:38:52.104Z,12.01
2022-10-19T03:41:19.796Z,11.97
2022-10-19T03:43:47.391Z,12.01
2022-10-19T03:46:15.004Z,12.01
2022-10-19T03:48:42.518Z,12.02
2022-10-19T03:51:11.719Z,11.97
2022-10-19T03:53:41.006Z,11.96
2022-10-19T03:56:12.523Z,11.99
2022-10-19T03:58:41.013Z,11.96
2022-10-19T04:01:10.521Z,11.96
2022-10-19T04:03:38.132Z,11.95
2022-10-19T04:06:07.605Z,11.97
2022-10-19T04:08:35.801Z,11.95
2022-10-19T04:11:05.516Z,11.90
2022-10-19T04:13:35.289Z,11.90
2022-10-19T04:16:03.078Z,11.90
2022-10-19T04:18:30.294Z,11.94
2022-10-19T04:20:58.145Z,12.03
2022-10-19T04:23:27.791Z,12.00
2022-10-19T04:25:59.640Z,11.99
2022-10-19T04:28:26.942Z,12.04
2022-10-19T04:30:55.690Z,12.08
2022-10-19T04:33:23.444Z,12.03
2022-10-19T04:35:50.712Z,12.14
2022-10-19T04:38:17.973Z,12.01
2022-10-19T04:40:45.224Z,12.05
2022-10-19T04:43:12.605Z,11.99
2022-10-19T04:45:39.804Z,12.03
2022-10-19T04:48:08.414Z,12.01
2022-10-19T04:50:35.712Z,12.03
2022-10-19T04:53:02.961Z,12.01
2022-10-19T04:55:30.172Z,12.02
2022-10-19T04:57:57.485Z,12.07
2022-10-19T05:00:24.766Z,12.08
2022-10-19T05:02:51.988Z,12.13
2022-10-19T05:05:20.607Z,12.11
2022-10-19T05:07:49.222Z,12.11
2022-10-19T05:10:16.719Z,12.03
2022-10-19T05:12:43.923Z,12.08
2022-10-19T05:15:11.286Z,12.12
2022-10-19T05:17:38.608Z,12.10
2022-10-19T05:20:06.991Z,12.13
2022-10-19T05:22:35.591Z,12.09
2022-10-19T05:25:02.999Z,12.16
2022-10-19T05:27:30.187Z,12.09
2022-10-19T05:29:57.505Z,12.07
2022-10-19T05:32:24.763Z,12.09
2022-10-19T05:34:52.080Z,12.15
2022-10-19T05:37:19.413Z,12.11
2022-10-19T05:39:48.134Z,12.10
2022-10-19T05:42:15.344Z,12.09
2022-10-19T05:44:42.659Z,12.18
2022-10-19T05:47:09.994Z,12.15
2022-10-19T05:49:37.263Z,12.08
2022-10-19T05:52:04.839Z,12.14
2022-10-19T05:54:32.158Z,12.09
2022-10-19T05:57:00.846Z,12.15
2022-10-19T05:59:28.055Z,12.18
2022-10-19T06:01:55.443Z,12.20
2022-10-19T06:04:22.809Z,12.19
2022-10-19T06:06:50.111Z,12.16
2022-10-19T06:09:17.340Z,12.18
2022-10-19T06:11:44.968Z,12.17
2022-10-19T06:14:15.132Z,12.21
2022-10-19T06:16:42.753Z,12.23
2022-10-19T06:19:09.974Z,12.23
2022-10-19T06:21:39.561Z,12.24
2022-10-19T06:24:11.329Z,12.24
2022-10-19T06:26:38.931Z,12.29
2022-10-19T06:29:06.129Z,12.29
2022-10-19T06:31:36.058Z,12.23
2022-10-19T06:34:04.062Z,12.28
2022-10-19T06:36:32.271Z,12.35
2022-10-19T06:39:00.077Z,12.27
2022-10-19T06:41:28.076Z,12.22
2022-10-19T06:43:56.025Z,12.36
2022-10-19T06:46:24.877Z,12.43
2022-10-19T06:48:55.127Z,12.49
2022-10-19T06:51:23.221Z,12.58
2022-10-19T06:53:52.851Z,12.55
2022-10-19T06:56:23.680Z,12.64
2022-10-19T06:58:50.980Z,12.47
2022-10-19T07:01:18.564Z,12.52
2022-10-19T07:03:45.846Z,12.42
2022-10-19T07:06:14.526Z,12.48
2022-10-19T07:08:43.300Z,12.48
2022-10-19T07:11:12.532Z,12.49
2022-10-19T07:13:39.831Z,12.58
2022-10-19T07:16:09.435Z,12.66
2022-10-19T07:18:38.009Z,12.72
2022-10-19T07:21:07.988Z,12.79
2022-10-19T07:23:38.239Z,12.94
2022-10-19T07:26:07.445Z,12.90
2022-10-19T07:28:35.032Z,12.86
2022-10-19T07:31:06.242Z,12.94
2022-10-19T07:33:33.720Z,13.03
2022-10-19T07:36:02.028Z,13.09
2022-10-19T07:38:31.129Z,13.24
2022-10-19T07:41:05.785Z,13.19
2022-10-19T07:43:33.248Z,13.14
2022-10-19T07:46:02.407Z,13.34
2022-10-19T07:48:29.633Z,13.30
2022-10-19T07:50:56.905Z,13.58
2022-10-19T07:53:24.569Z,13.46
2022-10-19T07:55:51.856Z,13.44
2022-10-19T07:58:20.543Z,13.57
2022-10-19T08:00:47.881Z,13.52
2022-10-19T08:06:03.629Z,13.73
2022-10-19T08:08:31.579Z,13.87
2022-10-19T08:11:06.827Z,13.74
2022-10-19T08:13:35.620Z,13.82
2022-10-19T08:16:03.207Z,14.10
2022-10-19T08:21:02.803Z,14.11
2022-10-19T08:23:30.031Z,14.09
2022-10-19T08:25:57.984Z,14.13
2022-10-19T08:28:25.296Z,14.24
2022-10-19T08:30:53.950Z,14.41
2022-10-19T08:33:21.114Z,14.53
2022-10-19T08:35:48.312Z,14.41
2022-10-19T08:38:15.480Z,14.46
2022-10-19T08:40:44.984Z,14.52
2022-10-19T08:43:17.891Z,14.55
2022-10-19T08:45:53.034Z,14.55
2022-10-19T08:48:28.499Z,14.56
2022-10-19T08:50:58.349Z,14.69
2022-10-19T08:53:33.019Z,14.86
2022-10-19T08:56:22.151Z,14.80
2022-10-19T08:59:12.645Z,14.94
2022-10-19T09:01:44.789Z,15.01
2022-10-19T09:04:20.439Z,15.26
2022-10-19T09:06:59.624Z,15.21
2022-10-19T09:09:29.877Z,15.25
2022-10-19T09:12:03.145Z,15.26
2022-10-19T09:14:38.478Z,15.21
2022-10-19T09:17:15.241Z,15.11
2022-10-19T09:19:45.642Z,15.44
2022-10-19T09:22:19.775Z,15.40
2022-10-19T09:24:50.977Z,15.13
2022-10-19T09:27:22.287Z,14.60
2022-10-19T09:29:53.657Z,14.58
2022-10-19T09:32:25.348Z,14.94
2022-10-19T09:34:56.660Z,15.10
2022-10-19T09:37:26.575Z,15.28
2022-10-19T09:39:55.800Z,14.94
2022-10-19T09:42:26.024Z,15.05
2022-10-19T09:44:54.915Z,15.44
2022-10-19T09:47:36.545Z,15.19
2022-10-19T09:50:24.554Z,15.26
2022-10-19T09:52:53.156Z,15.00
2022-10-19T09:55:29.417Z,15.32
2022-10-19T09:58:02.678Z,15.50
2022-10-19T10:00:40.214Z,15.76
2022-10-19T10:03:07.913Z,16.63
2022-10-19T10:05:38.427Z,16.91
2022-10-19T10:08:14.167Z,17.01
2022-10-19T10:10:45.359Z,16.77
2022-10-19T10:13:17.545Z,16.33
2022-10-19T10:15:49.102Z,17.73
2022-10-19T10:18:18.490Z,18.84
2022-10-19T10:21:03.877Z,19.57
2022-10-19T10:23:34.450Z,19.56
2022-10-19T10:26:02.685Z,19.36
2022-10-19T10:28:31.008Z,19.46
2022-10-19T10:31:04.668Z,19.77
2022-10-19T10:33:45.450Z,19.58
2022-10-19T10:36:14.524Z,20.11
2022-10-19T10:38:45.883Z,20.40
2022-10-19T10:41:15.527Z,19.71
2022-10-19T10:46:24.220Z,18.68
2022-10-19T10:48:58.335Z,18.55
2022-10-19T10:51:34.546Z,17.67
2022-10-19T10:54:19.331Z,18.15
2022-10-19T10:57:06.262Z,18.56
2022-10-19T10:59:43.180Z,19.74
2022-10-19T11:02:31.003Z,19.98
2022-10-19T11:05:03.713Z,19.12
2022-10-19T11:07:35.985Z,18.08
2022-10-19T11:10:11.396Z,18.34
2022-10-19T11:12:43.839Z,19.21
2022-10-19T11:15:21.057Z,18.64
2022-10-19T11:18:05.363Z,19.96
2022-10-19T11:20:34.639Z,19.87
2022-10-19T11:23:12.301Z,20.52
2022-10-19T11:25:50.887Z,20.89
2022-10-19T11:28:29.007Z,20.45
2022-10-19T11:31:05.308Z,20.88
2022-10-19T11:33:44.234Z,22.25
2022-10-19T11:36:24.495Z,21.26
2022-10-19T11:39:08.910Z,21.42
2022-10-19T11:41:45.434Z,21.79
2022-10-19T11:44:26.650Z,21.79
2022-10-19T11:47:08.481Z,21.69
2022-10-19T11:49:50.819Z,22.23
2022-10-19T11:52:29.065Z,22.00
2022-10-19T11:55:12.933Z,21.96
2022-10-19T11:57:49.445Z,21.19
2022-10-19T12:00:39.233Z,21.63
2022-10-19T12:03:30.589Z,21.52
2022-10-19T12:06:05.524Z,20.92
2022-10-19T12:08:46.577Z,21.04
2022-10-19T12:11:27.121Z,21.79
2022-10-19T12:13:59.643Z,22.10
2022-10-19T12:16:34.240Z,21.59
2022-10-19T12:19:04.479Z,20.17
2022-10-19T12:21:36.362Z,18.67
2022-10-19T12:24:10.953Z,17.61
2022-10-19T12:26:40.924Z,17.30
2022-10-19T12:29:15.772Z,18.10
2022-10-19T12:31:44.505Z,18.81
2022-10-19T12:34:25.465Z,19.45
2022-10-19T12:36:59.565Z,18.89
2022-10-19T12:39:35.045Z,18.80
2022-10-19T12:42:13.403Z,17.94
2022-10-19T12:44:58.789Z,17.70
2022-10-19T12:47:26.747Z,19.05
2022-10-19T12:49:55.169Z,18.57
2022-10-19T12:52:44.666Z,17.87
2022-10-19T12:55:29.161Z,17.90
2022-10-19T12:58:02.144Z,17.67
2022-10-19T13:00:31.653Z,17.77
2022-10-19T13:03:03.418Z,19.35
2022-10-19T13:05:32.147Z,20.72
2022-10-19T13:08:02.222Z,21.22
2022-10-19T13:10:31.886Z,21.28
2022-10-19T13:13:03.315Z,22.62
2022-10-19T13:15:57.688Z,21.47
2022-10-19T13:19:04.276Z,20.50
2022-10-19T13:22:07.013Z,19.32
2022-10-19T13:24:36.793Z,19.14
2022-10-19T13:27:36.405Z,19.80
2022-10-19T13:30:26.310Z,20.32
2022-10-19T13:32:53.566Z,21.28
2022-10-19T13:35:24.012Z,21.09
2022-10-19T13:38:20.001Z,21.41
2022-10-19T13:40:59.845Z,21.00
2022-10-19T13:43:30.876Z,20.20
2022-10-19T13:46:06.041Z,20.79
2022-10-19T13:48:44.441Z,20.15
2022-10-19T13:51:24.737Z,19.21
2022-10-19T13:54:02.967Z,19.25
2022-10-19T13:56:50.657Z,18.47
2022-10-19T13:59:43.371Z,18.10
2022-10-19T14:02:37.391Z,17.64
2022-10-19T14:05:19.261Z,17.62
2022-10-19T14:07:55.689Z,17.75
2022-10-19T14:10:28.308Z,17.14
2022-10-19T14:13:02.004Z,17.01
2022-10-19T14:15:31.461Z,17.28
2022-10-19T14:18:03.681Z,18.43
2022-10-19T14:20:35.537Z,20.12
2022-10-19T14:23:18.312Z,21.57
2022-10-19T14:25:50.962Z,22.22
2022-10-19T14:28:18.261Z,21.95
2022-10-19T14:30:54.673Z,22.39
2022-10-19T14:33:23.981Z,22.60
2022-10-19T14:35:52.432Z,22.32
2022-10-19T14:38:23.912Z,20.57
2022-10-19T14:40:51.111Z,20.47
2022-10-19T14:43:21.416Z,20.63
2022-10-19T14:46:11.816Z,21.21
2022-10-19T14:48:42.763Z,20.80
2022-10-19T14:51:27.590Z,21.27
2022-10-19T14:53:58.995Z,21.21
2022-10-19T14:56:32.973Z,21.31
2022-10-19T14:59:04.804Z,21.00
2022-10-19T15:01:32.381Z,19.89
2022-10-19T15:04:01.834Z,19.50
2022-10-19T15:06:33.250Z,18.75
2022-10-19T15:09:03.810Z,18.66
2022-10-19T15:11:36.461Z,18.30
2022-10-19T15:14:08.229Z,18.35
2022-10-19T15:16:43.990Z,18.18
2022-10-19T15:19:27.521Z,17.47
2022-10-19T15:22:14.735Z,17.48
2022-10-19T15:24:55.290Z,17.41
2022-10-19T15:27:29.929Z,17.64
2022-10-19T15:29:59.705Z,17.39
2022-10-19T15:32:31.525Z,17.37
2022-10-19T15:35:00.293Z,17.14
2022-10-19T15:37:27.640Z,16.75
2022-10-19T15:39:55.137Z,16.63
2022-10-19T15:42:35.990Z,16.20
2022-10-19T15:45:04.384Z,15.84
2022-10-19T15:47:31.741Z,15.53
2022-10-19T15:50:02.126Z,15.56
2022-10-19T15:52:32.213Z,15.35
2022-10-19T15:55:00.948Z,15.30
2022-10-19T15:57:30.412Z,15.30
2022-10-19T16:00:00.163Z,15.04
2022-10-19T16:02:27.528Z,15.10
2022-10-19T16:04:55.295Z,15.15
2022-10-19T16:07:27.714Z,15.00
2022-10-19T16:09:54.963Z,14.92
2022-10-19T16:12:22.816Z,14.77
2022-10-19T16:14:50.076Z,14.57
2022-10-19T16:17:17.662Z,14.42
2022-10-19T16:19:45.802Z,14.48
2022-10-19T16:22:14.029Z,14.32
2022-10-19T16:24:43.007Z,14.21
2022-10-19T16:27:10.692Z,14.15
2022-10-19T16:29:37.951Z,14.06
2022-10-19T16:32:05.574Z,13.82
2022-10-19T16:34:32.756Z,13.82
2022-10-19T16:37:02.651Z,13.73
2022-10-19T16:39:33.100Z,13.65
2022-10-19T16:42:01.783Z,13.69
2022-10-19T16:44:29.060Z,13.56
2022-10-19T16:46:57.111Z,13.48
2022-10-19T16:49:24.637Z,13.35
2022-10-19T16:51:54.807Z,13.37
2022-10-19T16:54:25.436Z,13.35
2022-10-19T16:56:52.890Z,13.27
2022-10-19T16:59:21.809Z,13.20
2022-10-19T17:01:49.099Z,13.32
2022-10-19T17:04:17.287Z,13.33
2022-10-19T17:06:44.713Z,13.09
2022-10-19T17:09:40.242Z,13.07
2022-10-19T17:11:59.235Z,12.86
2022-10-19T17:14:27.886Z,12.84
2022-10-19T17:16:55.432Z,12.80
2022-10-19T17:19:22.690Z,12.72
2022-10-19T17:21:50.119Z,12.71
2022-10-19T17:24:22.085Z,12.73
2022-10-19T17:26:50.739Z,12.60
2022-10-19T17:29:18.841Z,12.53
2022-10-19T17:31:47.980Z,12.41
2022-10-19T17:34:15.701Z,12.38
2022-10-19T17:36:44.350Z,12.30
2022-10-19T17:39:13.732Z,12.27
2022-10-19T17:41:41.005Z,12.22
2022-10-19T17:44:08.214Z,12.25
2022-10-19T17:46:36.131Z,12.05
2022-10-19T17:49:05.257Z,12.10
2022-10-19T17:51:34.423Z,12.14
2022-10-19T17:54:04.176Z,12.16
2022-10-19T17:56:31.636Z,12.13
2022-10-19T17:58:59.030Z,12.10
2022-10-19T18:01:27.222Z,12.29
2022-10-19T18:03:54.560Z,12.31
2022-10-19T18:06:24.953Z,12.15
2022-10-19T18:08:53.773Z,12.08
2022-10-19T18:11:23.137Z,11.91
2022-10-19T18:13:51.549Z,11.84
2022-10-19T18:16:21.277Z,11.79
2022-10-19T18:18:50.513Z,11.88
2022-10-19T18:21:20.723Z,11.77
2022-10-19T18:23:49.314Z,11.55
2022-10-19T18:26:19.135Z,11.58
2022-10-19T18:28:46.653Z,11.58
2022-10-19T18:31:15.905Z,11.50
2022-10-19T18:33:43.211Z,11.52
2022-10-19T18:36:11.009Z,11.52
2022-10-19T18:38:39.046Z,11.42
2022-10-19T18:41:08.946Z,11.55
2022-10-19T18:43:36.189Z,11.43
2022-10-19T18:46:03.614Z,11.32
2022-10-19T18:48:31.110Z,11.34
2022-10-19T18:51:02.465Z,11.31
2022-10-19T18:53:30.847Z,11.18
2022-10-19T18:55:58.417Z,11.19
2022-10-19T18:58:27.239Z,11.17
2022-10-19T19:01:03.046Z,11.11
2022-10-19T19:03:30.273Z,11.02
2022-10-19T19:05:59.455Z,10.94
2022-10-19T19:08:27.203Z,10.94
2022-10-19T19:10:55.346Z,10.92
2022-10-19T19:13:23.108Z,10.82
2022-10-19T19:15:59.016Z,10.83
2022-10-19T19:18:26.580Z,10.83
2022-10-19T19:20:53.786Z,10.77
2022-10-19T19:23:21.113Z,10.71
2022-10-19T19:25:48.379Z,10.64
2022-10-19T19:28:15.635Z,10.58
2022-10-19T19:30:44.322Z,10.54
2022-10-19T19:33:13.406Z,10.51
2022-10-19T19:35:43.742Z,10.53
2022-10-19T19:38:11.501Z,10.49
2022-10-19T19:40:39.644Z,10.49
2022-10-19T19:43:07.023Z,10.36
2022-10-19T19:45:34.399Z,10.33
2022-10-19T19:48:01.994Z,10.32
2022-10-19T19:50:30.728Z,10.28
2022-10-19T19:52:59.232Z,10.27
2022-10-19T19:55:26.624Z,10.28
2022-10-19T19:57:54.060Z,10.18
2022-10-19T20:00:22.059Z,10.14
2022-10-19T20:02:51.862Z,10.10
2022-10-19T20:05:19.628Z,10.02
2022-10-19T20:07:48.362Z,10.02
2022-10-19T20:10:15.718Z,9.95
2022-10-19T20:12:43.329Z,10.10
2022-10-19T20:15:12.274Z,10.09
2022-10-19T20:17:40.239Z,10.07
2022-10-19T20:20:09.685Z,9.91
2022-10-19T20:22:37.688Z,10.05
2022-10-19T20:25:07.331Z,9.92
2022-10-19T20:27:35.180Z,9.88
2022-10-19T20:30:03.033Z,9.85
2022-10-19T20:32:30.908Z,9.80
2022-10-19T20:34:58.255Z,9.82
2022-10-19T20:37:25.530Z,9.72
2022-10-19T20:39:52.793Z,9.71
2022-10-19T20:42:21.366Z,9.80
2022-10-19T20:44:48.884Z,9.76
2022-10-19T20:47:16.083Z,9.81
2022-10-19T20:49:43.268Z,9.71
2022-10-19T20:52:10.608Z,9.67
2022-10-19T20:54:38.073Z,9.63
2022-10-19T20:57:05.463Z,9.61
2022-10-19T20:59:34.326Z,9.60
2022-10-19T21:02:03.797Z,9.53
2022-10-19T21:04:31.264Z,9.51
2022-10-19T21:06:58.489Z,9.47
2022-10-19T21:09:25.751Z,9.36
2022-10-19T21:11:53.008Z,9.27
2022-10-19T21:14:26.922Z,9.27
2022-10-19T21:16:58.561Z,9.26
2022-10-19T21:19:27.392Z,9.32
2022-10-19T21:21:57.162Z,9.22
2022-10-19T21:24:26.897Z,9.16
2022-10-19T21:26:54.782Z,9.20
2022-10-19T21:29:22.303Z,9.11
2022-10-19T21:31:52.351Z,9.10
2022-10-19T21:34:22.771Z,9.02
2022-10-19T21:36:50.415Z,9.03
2022-10-19T21:39:18.295Z,8.97
2022-10-19T21:41:46.431Z,8.93
2022-10-19T21:44:15.021Z,8.86
2022-10-19T21:46:42.310Z,8.94
2022-10-19T21:49:10.992Z,8.86
2022-10-19T21:51:44.006Z,8.94
2022-10-19T21:54:13.442Z,8.91
2022-10-19T21:56:40.757Z,8.84
2022-10-19T21:59:08.447Z,8.83
2022-10-19T22:01:38.747Z,8.76
2022-10-19T22:04:12.585Z,8.70
2022-10-19T22:06:42.526Z,8.70
2022-10-19T22:09:12.389Z,8.74
2022-10-19T22:11:39.766Z,8.67
2022-10-19T22:14:07.056Z,8.61
2022-10-19T22:16:34.633Z,8.63
2022-10-19T22:19:02.039Z,8.59
2022-10-19T22:21:31.320Z,8.61
2022-10-19T22:24:01.523Z,8.55
2022-10-19T22:26:31.198Z,8.61
2022-10-19T22:29:00.302Z,8.54
2022-10-19T22:31:29.804Z,8.43
2022-10-19T22:33:57.321Z,8.55
2022-10-19T22:36:24.573Z,8.44
2022-10-19T22:38:51.811Z,8.49
2022-10-19T22:41:20.432Z,8.33
2022-10-19T22:43:47.689Z,8.20
2022-10-19T22:46:14.993Z,8.30
2022-10-19T22:48:42.240Z,8.37
2022-10-19T22:51:09.620Z,8.23
2022-10-19T22:53:36.962Z,8.15
2022-10-19T22:56:04.956Z,8.11
2022-10-19T22:58:33.733Z,8.06
2022-10-19T23:01:02.682Z,8.09
2022-10-19T23:03:30.128Z,7.93
2022-10-19T23:05:57.549Z,7.98
2022-10-19T23:08:24.959Z,8.06
2022-10-19T23:10:52.409Z,8.03
2022-10-19T23:13:19.665Z,8.00
2022-10-19T23:15:48.299Z,8.01
2022-10-19T23:18:15.738Z,7.86
2022-10-19T23:20:43.563Z,7.83
2022-10-19T23:23:10.834Z,7.73
2022-10-19T23:25:38.139Z,7.77
2022-10-19T23:28:05.523Z,7.81
2022-10-19T23:30:32.842Z,7.76
2022-10-19T23:33:01.440Z,7.73
2022-10-19T23:35:28.793Z,7.74
2022-10-19T23:37:56.065Z,7.70
2022-10-19T23:40:23.333Z,7.62
2022-10-19T23:42:50.562Z,7.58
2022-10-19T23:45:17.797Z,7.62
2022-10-19T23:47:45.056Z,7.59
2022-10-19T23:50:13.701Z,7.57
2022-10-19T23:52:40.969Z,7.50
2022-10-19T23:55:09.409Z,7.45
2022-10-19T23:57:37.132Z,7.49
